Hovedside
METAR-TAF:

METAR-TAF

Lufthavner :

Kosrae, Mikronesia

breddegrad: 05-21N, lengdegrad: 162-57E, høyde over havet: 3 m

Gjeldene værobservasjon

Denne rapporten ble laget for 9 timer og 39 minutter siden, klokken 23:50 UTC
Vind 7 kt fra Øst
Temperatur 31°C
Luftfuktighet 66%
Trykk 1010 hPa
Sikt: 16.1 km
Brutte skyer i en høyde av 2000 ft, Tårnskyer (cumulus).
Brutte skyer i en høyde av 13000 ft
Brutte skyer i en høyde av 30000 ft

METAR: PTSA 182350Z 09007KT 10SM BKN020TCU BKN130 BKN300 31/24 A2982 RMK TCU SW LAST

Tid: 20:29 (09:29 UTC)

Varsel

Denne rapporten ble laget for 10 timer og 9 minutter siden, klokken 23:20 UTC
Varsel gyldig fra 19. klokken 00 UTC til 19. klokken 24 UTC
Vind 8 kt fra Øst
Sikt: 10 km
Spredte skyer i en høyde av 2000 ft
Brutte skyer i en høyde av 13000 ft
Brutte skyer i en høyde av 30000 ft

TAF: PTSA 182320Z 1900/1924 10008KT P6SM SCT020 BKN130 BKN300

Værobservasjoner og værvarsel for over 4000 flyplasser (METAR- og TAF-rapporter).

Tilgjengelige stasjoner er representert av de røde og gule prikkene på kartet.

Hold musepekeren over prikken for å se navnet på stasjonen.

Klikk så for å se værobservasjoner og -varsler.

For å forandre kartet kan du klikke på den grønne knappen med svart kryss for å zoome inn, på den grønne knappen med strek for å zoome ut, eller på de grønne pilene for å se tilstøtende kart.


METAR-TAF: